aviador You're here:

OICM Decoded Metar

MEHRAN in IRAN
Report Time2018-02-21 04:00:00
UTC Time2018-02-21 05:01:19
Flight Rules vfr VFR
Wind050° at 02 kt
W.Rank050° ranks 18
Current wind is below 050° avg. (3.0)
Visibility9999 m
Phenomena:N/A
Clouds:Scattered 040 Hf
Overcast 080 Hf
Expected CloudBase > 2,400 ft AGL from Temp-Dew spread
Ceiling8,000 ft
Temp14°C
Dew Point08°C (67% RH)
AAT12.8°C
QNH1012 hPa
Raw Report
METAR OICM 210400Z 05002KT 9999 SCT040 OVC080 14/08 Q1012=

Extra information for OICM:More info

Social comments